createdAt,value
2023-03-26T00:00:00.115Z, 82.1
2023-03-26T00:02:00.130Z, 82.7
2023-03-26T00:04:00.088Z, 82.8
2023-03-26T00:06:00.186Z, 83
2023-03-26T00:08:00.058Z, 83.5
2023-03-26T00:10:00.063Z, 84.2
2023-03-26T00:12:00.078Z, 84.3
2023-03-26T00:14:00.069Z, 84.2
2023-03-26T00:16:00.070Z, 84.1
2023-03-26T00:18:00.112Z, 83.9
2023-03-26T00:20:00.055Z, 83.6
2023-03-26T00:22:00.051Z, 83.7
2023-03-26T00:24:00.094Z, 83.6
2023-03-26T00:26:00.117Z, 83.6
2023-03-26T00:28:00.105Z, 83.6
2023-03-26T00:30:00.140Z, 83.5
2023-03-26T00:32:00.156Z, 83.8
2023-03-26T00:34:00.140Z, 84.4
2023-03-26T00:36:01.352Z, 84.6
2023-03-26T00:38:00.130Z, 84.6
2023-03-26T00:40:01.066Z, 84.8
2023-03-26T00:42:00.127Z, 85.3
2023-03-26T00:44:00.204Z, 85.7
2023-03-26T00:46:00.191Z, 86
2023-03-26T00:48:01.750Z, 86.1
2023-03-26T00:50:00.163Z, 86.3
2023-03-26T00:52:00.143Z, 86.1
2023-03-26T00:54:00.153Z, 86.2
2023-03-26T00:56:00.078Z, 86.6
2023-03-26T00:58:00.060Z, 87
2023-03-26T01:00:00.069Z, 86.6
2023-03-26T01:02:00.108Z, 86.3
2023-03-26T01:06:00.097Z, 86.7
2023-03-26T01:08:00.071Z, 86.5
2023-03-26T01:10:00.069Z, 86.6
2023-03-26T01:12:00.060Z, 87
2023-03-26T01:14:00.045Z, 87
2023-03-26T01:16:00.112Z, 87
2023-03-26T01:18:00.094Z, 86.9
2023-03-26T01:20:00.068Z, 86.5
2023-03-26T01:22:00.071Z, 86.6
2023-03-26T01:24:00.083Z, 86.8
2023-03-26T01:26:00.102Z, 86.3
2023-03-26T01:28:00.105Z, 86
2023-03-26T01:30:00.145Z, 85.8
2023-03-26T01:32:00.111Z, 85.8
2023-03-26T01:34:00.123Z, 85.9
2023-03-26T01:36:00.188Z, 86.2
2023-03-26T01:38:00.153Z, 85.5
2023-03-26T01:40:00.173Z, 85.9
2023-03-26T01:42:00.119Z, 86
2023-03-26T01:44:00.128Z, 85.8
2023-03-26T01:46:00.127Z, 86.2
2023-03-26T01:48:00.230Z, 86.6
2023-03-26T01:50:00.127Z, 86.7
2023-03-26T01:52:00.125Z, 86.8
2023-03-26T01:54:00.141Z, 86.8
2023-03-26T01:56:00.110Z, 86.9
2023-03-26T01:58:00.087Z, 86.9
2023-03-26T02:00:00.132Z, 86.9
2023-03-26T02:02:00.191Z, 87
2023-03-26T02:04:00.137Z, 87.3
2023-03-26T02:06:00.111Z, 87.2
2023-03-26T02:08:00.067Z, 87.1
2023-03-26T02:10:00.090Z, 86.8
2023-03-26T02:12:00.097Z, 86.7
2023-03-26T02:14:00.109Z, 86.4
2023-03-26T02:16:00.117Z, 85.7
2023-03-26T02:18:00.203Z, 85
2023-03-26T02:20:00.073Z, 84.9
2023-03-26T02:22:00.108Z, 85
2023-03-26T02:24:00.080Z, 85.1
2023-03-26T02:26:00.126Z, 84.7
2023-03-26T02:28:00.107Z, 84.7
2023-03-26T02:30:00.151Z, 84.3
2023-03-26T02:32:00.185Z, 84.2
2023-03-26T02:34:00.150Z, 84.3
2023-03-26T02:36:00.252Z, 83.9
2023-03-26T02:38:00.112Z, 83.8
2023-03-26T02:40:00.154Z, 84.3
2023-03-26T02:42:00.136Z, 85.2
2023-03-26T02:44:00.106Z, 85.2
2023-03-26T02:46:00.301Z, 85
2023-03-26T02:48:00.198Z, 84.8
2023-03-26T02:50:00.159Z, 84.2
2023-03-26T02:52:00.149Z, 83.6
2023-03-26T02:54:00.138Z, 83.6
2023-03-26T02:56:00.049Z, 84
2023-03-26T02:58:00.047Z, 84.1
2023-03-26T03:00:00.081Z, 84.2
2023-03-26T03:02:00.032Z, 84
2023-03-26T03:04:00.105Z, 84.1
2023-03-26T03:06:00.061Z, 84.1
2023-03-26T03:08:00.053Z, 83.9
2023-03-26T03:10:00.086Z, 83.5
2023-03-26T03:12:00.068Z, 82.9
2023-03-26T03:14:00.093Z, 82.4
2023-03-26T03:16:00.036Z, 81.3
2023-03-26T03:18:00.142Z, 81.3
2023-03-26T03:20:00.119Z, 80.9
2023-03-26T03:22:00.043Z, 81.1
2023-03-26T03:24:00.588Z, 80.7
2023-03-26T03:26:00.122Z, 80.6
2023-03-26T03:28:00.115Z, 79.9
2023-03-26T03:30:00.185Z, 79.1
2023-03-26T03:32:00.221Z, 78.1
2023-03-26T03:34:00.129Z, 77.2
2023-03-26T03:36:00.161Z, 77
2023-03-26T03:38:00.135Z, 76.7
2023-03-26T03:40:00.170Z, 76.7
2023-03-26T03:42:00.136Z, 76.7
2023-03-26T03:44:00.108Z, 75.7
2023-03-26T03:46:00.139Z, 75.1
2023-03-26T03:48:00.213Z, 74.5
2023-03-26T03:50:00.253Z, 74.5
2023-03-26T03:52:00.125Z, 74.6
2023-03-26T03:54:00.131Z, 74.9
2023-03-26T03:56:00.104Z, 75.5
2023-03-26T03:58:00.087Z, 76.1
2023-03-26T04:00:00.133Z, 76.6
2023-03-26T04:02:00.082Z, 77
2023-03-26T04:04:00.233Z, 78.1
2023-03-26T04:06:00.086Z, 78
2023-03-26T04:08:00.087Z, 78.1
2023-03-26T04:10:00.139Z, 79.5
2023-03-26T04:12:00.080Z, 79.9
2023-03-26T04:14:00.081Z, 80
2023-03-26T04:16:00.105Z, 80.5
2023-03-26T04:18:00.172Z, 81
2023-03-26T04:20:00.078Z, 81.6
2023-03-26T04:22:00.050Z, 82.4
2023-03-26T04:24:00.046Z, 82.5
2023-03-26T04:26:00.121Z, 83.5
2023-03-26T04:28:00.110Z, 84.6
2023-03-26T04:30:00.154Z, 84
2023-03-26T04:32:00.141Z, 83.5
2023-03-26T04:34:00.144Z, 83.2
2023-03-26T04:36:00.180Z, 82.6
2023-03-26T04:38:00.118Z, 82.3
2023-03-26T04:40:00.141Z, 81.6
2023-03-26T04:42:00.114Z, 81
2023-03-26T04:44:00.104Z, 81.4
2023-03-26T04:46:00.108Z, 81.6
2023-03-26T04:48:00.200Z, 81.8
2023-03-26T04:50:00.138Z, 82.3
2023-03-26T04:52:00.110Z, 82.6
2023-03-26T04:54:00.126Z, 82.7
2023-03-26T04:56:00.121Z, 83.2
2023-03-26T04:58:00.123Z, 83.3
2023-03-26T05:00:00.118Z, 83.1
2023-03-26T05:02:00.140Z, 82.9
2023-03-26T05:04:00.118Z, 82.5
2023-03-26T05:06:00.102Z, 82.3
2023-03-26T05:08:00.100Z, 82.6
2023-03-26T05:10:00.084Z, 82.7
2023-03-26T05:12:00.050Z, 82.8
2023-03-26T05:14:00.082Z, 82.7
2023-03-26T05:16:00.104Z, 82.6
2023-03-26T05:18:00.145Z, 83.2
2023-03-26T05:20:00.064Z, 83.3
2023-03-26T05:22:00.061Z, 83.6
2023-03-26T05:24:00.053Z, 83.6
2023-03-26T05:26:00.136Z, 83.7
2023-03-26T05:28:00.094Z, 83.7
2023-03-26T05:30:00.099Z, 83.5
2023-03-26T05:32:00.110Z, 83.4
2023-03-26T05:34:00.214Z, 83
2023-03-26T05:36:00.191Z, 82.8
2023-03-26T05:38:00.117Z, 82.3
2023-03-26T05:40:00.143Z, 82
2023-03-26T05:42:00.129Z, 81.7
2023-03-26T05:44:00.130Z, 80.9
2023-03-26T05:46:00.187Z, 80.7
2023-03-26T05:48:00.181Z, 79.4
2023-03-26T05:50:00.175Z, 78.5
2023-03-26T05:52:00.122Z, 78.3
2023-03-26T05:54:00.137Z, 79.2
2023-03-26T05:56:00.084Z, 80.7
2023-03-26T05:58:00.051Z, 82.3
2023-03-26T06:00:00.135Z, 83.8
2023-03-26T06:02:00.053Z, 85.2
2023-03-26T06:04:00.155Z, 86.5
2023-03-26T06:06:00.130Z, 87.5
2023-03-26T06:08:00.076Z, 87.7
2023-03-26T06:10:00.103Z, 88.3
2023-03-26T06:12:00.071Z, 88.6
2023-03-26T06:14:00.053Z, 87.9
2023-03-26T06:16:00.100Z, 87.4
2023-03-26T06:18:00.134Z, 86.5
2023-03-26T06:20:00.047Z, 85.5
2023-03-26T06:22:00.043Z, 87.3
2023-03-26T06:24:00.094Z, 89.6
2023-03-26T06:26:00.125Z, 89.7
2023-03-26T06:28:00.104Z, 88.3
2023-03-26T06:30:00.172Z, 88.9
2023-03-26T06:32:12.381Z, 89.6
2023-03-26T06:34:00.121Z, 90.7
2023-03-26T06:36:00.173Z, 91
2023-03-26T06:38:00.141Z, 92
2023-03-26T06:40:00.152Z, 92.1
2023-03-26T06:42:00.130Z, 93.3
2023-03-26T06:44:00.116Z, 96.5
2023-03-26T06:46:00.110Z, 98.5
2023-03-26T06:48:00.148Z, 99.8
2023-03-26T06:50:00.141Z, 100
2023-03-26T06:52:00.106Z, 99.5
2023-03-26T06:54:00.110Z, 98.3
2023-03-26T06:56:00.113Z, 96.5
2023-03-26T06:58:00.103Z, 95.4
2023-03-26T07:00:00.112Z, 94.1
2023-03-26T07:02:00.079Z, 93.4
2023-03-26T07:04:00.310Z, 92.8
2023-03-26T07:06:00.110Z, 92.8
2023-03-26T07:08:00.071Z, 92.6
2023-03-26T07:10:00.127Z, 92.4
2023-03-26T07:12:00.102Z, 92.1
2023-03-26T07:14:00.060Z, 92.2
2023-03-26T07:16:00.123Z, 92.2
2023-03-26T07:18:00.150Z, 92.5
2023-03-26T07:20:00.058Z, 93.1
2023-03-26T07:22:00.060Z, 93.3
2023-03-26T07:24:00.104Z, 93.3
2023-03-26T07:26:00.069Z, 93.5
2023-03-26T07:28:00.049Z, 93.4
2023-03-26T07:30:00.051Z, 93.5
2023-03-26T07:32:00.100Z, 93.1
2023-03-26T07:34:00.044Z, 92.7
2023-03-26T07:36:00.064Z, 92.3
2023-03-26T07:38:00.013Z, 92.1
2023-03-26T07:40:00.023Z, 92.3
2023-03-26T07:42:00.051Z, 91.5
2023-03-26T07:44:00.025Z, 90.8
2023-03-26T07:46:00.060Z, 90.2
2023-03-26T07:48:00.074Z, 89.2
2023-03-26T07:50:00.039Z, 89.2
2023-03-26T07:52:00.000Z, 88.9
2023-03-26T07:54:00.108Z, 88.9
2023-03-26T07:56:00.177Z, 88.3
2023-03-26T07:58:00.130Z, 88.8
2023-03-26T08:00:00.183Z, 89.2
2023-03-26T08:02:00.116Z, 88.7
2023-03-26T08:04:00.389Z, 88.8
2023-03-26T08:06:00.135Z, 88.8
2023-03-26T08:08:00.102Z, 88.8
2023-03-26T08:10:00.123Z, 88.8
2023-03-26T08:12:00.118Z, 88.8
2023-03-26T08:14:00.123Z, 88.8
2023-03-26T08:16:00.217Z, 88.8
2023-03-26T08:18:00.198Z, 88.8
2023-03-26T08:20:00.131Z, 88.8
2023-03-26T08:22:00.123Z, 88.8
2023-03-26T08:24:00.206Z, 88.8
2023-03-26T08:26:00.092Z, 88.8
2023-03-26T08:28:00.061Z, 88.8
2023-03-26T08:30:00.070Z, 88.8
2023-03-26T08:32:00.053Z, 88.8
2023-03-26T08:34:00.062Z, 88.8
2023-03-26T08:36:00.121Z, 88.8
2023-03-26T08:38:00.045Z, 88.8
2023-03-26T08:40:00.075Z, 88.8
2023-03-26T08:42:00.045Z, 88.8
2023-03-26T08:44:00.057Z, 88.8
2023-03-26T08:46:00.032Z, 85.1
2023-03-26T08:48:00.113Z, 84.5
2023-03-26T08:50:00.049Z, 84.3
2023-03-26T08:52:00.059Z, 84.6
2023-03-26T08:54:00.019Z, 84.4
2023-03-26T08:56:00.125Z, 85.1
2023-03-26T08:58:00.144Z, 85.1
2023-03-26T09:00:02.421Z, 85.5
2023-03-26T09:02:00.206Z, 85.1
2023-03-26T09:04:00.173Z, 84.8
2023-03-26T09:06:00.169Z, 85
2023-03-26T09:08:00.186Z, 85.3
2023-03-26T09:10:00.146Z, 85
2023-03-26T09:12:00.130Z, 85
2023-03-26T09:14:00.119Z, 85
2023-03-26T09:16:00.149Z, 85
2023-03-26T09:18:00.262Z, 85
2023-03-26T09:20:00.231Z, 85
2023-03-26T09:22:00.184Z, 85
2023-03-26T09:24:00.284Z, 85
2023-03-26T09:26:00.110Z, 87.3
2023-03-26T09:28:00.097Z, 87.3
2023-03-26T09:30:00.155Z, 87.3
2023-03-26T09:32:00.054Z, 87.3
2023-03-26T09:34:00.285Z, 87.3
2023-03-26T09:36:00.152Z, 87.5
2023-03-26T09:38:00.041Z, 87.1
2023-03-26T09:40:00.107Z, 87.1
2023-03-26T09:42:00.044Z, 87.1
2023-03-26T09:44:00.041Z, 87.1
2023-03-26T09:46:00.150Z, 87.1
2023-03-26T09:48:00.165Z, 84.6
2023-03-26T09:52:00.044Z, 81.6
2023-03-26T09:54:00.017Z, 79.6
2023-03-26T09:56:00.107Z, 80.3
2023-03-26T09:58:00.163Z, 79.4
2023-03-26T10:00:00.160Z, 78.6
2023-03-26T10:02:00.126Z, 77.5
2023-03-26T10:04:00.136Z, 79.1
2023-03-26T10:06:00.117Z, 78.9
2023-03-26T10:08:00.108Z, 78.7
2023-03-26T10:10:00.127Z, 79.1
2023-03-26T10:12:00.146Z, 77.6
2023-03-26T10:14:00.101Z, 78.7
2023-03-26T10:16:00.144Z, 77.8
2023-03-26T10:18:00.224Z, 78.7
2023-03-26T10:20:00.134Z, 78.6
2023-03-26T10:22:00.136Z, 80.1
2023-03-26T10:24:00.125Z, 81.8
2023-03-26T10:26:00.090Z, 82.7
2023-03-26T10:28:00.132Z, 83.6
2023-03-26T10:30:00.125Z, 83
2023-03-26T10:32:00.085Z, 83.2
2023-03-26T10:34:00.094Z, 82.8
2023-03-26T10:36:00.119Z, 81.4
2023-03-26T10:38:00.046Z, 82.7
2023-03-26T10:40:00.077Z, 81.7
2023-03-26T10:42:00.091Z, 84.7
2023-03-26T10:44:07.909Z, 86
2023-03-26T10:46:00.056Z, 88.8
2023-03-26T10:48:00.153Z, 88.7
2023-03-26T10:50:00.041Z, 88.6
2023-03-26T10:52:00.042Z, 89.9
2023-03-26T10:54:00.030Z, 90.1
2023-03-26T10:56:00.111Z, 89.7
2023-03-26T10:58:00.113Z, 91.2
2023-03-26T11:00:00.166Z, 89.9
2023-03-26T11:02:00.395Z, 89.8
2023-03-26T11:04:00.115Z, 89.8
2023-03-26T11:06:00.195Z, 89.8
2023-03-26T11:08:00.113Z, 90.5
2023-03-26T11:10:00.165Z, 90.8
2023-03-26T11:12:00.153Z, 86.6
2023-03-26T11:14:00.130Z, 88
2023-03-26T11:16:00.173Z, 87.4
2023-03-26T11:18:00.182Z, 87.9
2023-03-26T11:20:00.131Z, 86
2023-03-26T11:22:00.142Z, 87.7
2023-03-26T11:24:04.657Z, 86
2023-03-26T11:26:00.074Z, 85.8
2023-03-26T11:28:00.080Z, 84.8
2023-03-26T11:30:00.124Z, 83.7
2023-03-26T11:32:00.051Z, 84.5
2023-03-26T11:34:00.064Z, 82
2023-03-26T11:36:00.097Z, 82.2
2023-03-26T11:38:00.045Z, 82.6
2023-03-26T11:40:00.063Z, 81.2
2023-03-26T11:42:00.072Z, 80.8
2023-03-26T11:44:00.060Z, 82.4
2023-03-26T11:46:00.191Z, 83.2
2023-03-26T11:48:00.146Z, 84.4
2023-03-26T11:50:00.088Z, 85.9
2023-03-26T11:52:00.039Z, 86.1
2023-03-26T11:54:00.035Z, 86.4
2023-03-26T11:56:00.127Z, 87
2023-03-26T11:58:00.114Z, 85.9
2023-03-26T12:00:00.118Z, 86
2023-03-26T12:02:00.227Z, 85.4
2023-03-26T12:04:00.164Z, 84.2
2023-03-26T12:06:00.110Z, 84.8
2023-03-26T12:08:00.149Z, 84.9
2023-03-26T12:10:18.715Z, 85.7
2023-03-26T12:12:00.119Z, 87.7
2023-03-26T12:14:00.112Z, 88.4
2023-03-26T12:16:00.128Z, 87.5
2023-03-26T12:18:00.203Z, 86.9
2023-03-26T12:20:00.145Z, 88.3
2023-03-26T12:22:00.117Z, 89.2
2023-03-26T12:24:00.138Z, 88.9
2023-03-26T12:26:00.056Z, 90.2
2023-03-26T12:28:00.070Z, 91
2023-03-26T12:30:00.179Z, 90.9
2023-03-26T12:32:00.062Z, 88.3
2023-03-26T12:34:00.053Z, 86.8
2023-03-26T12:36:00.158Z, 85.9
2023-03-26T12:38:00.030Z, 85.6
2023-03-26T12:40:08.795Z, 84
2023-03-26T12:44:46.458Z, 85.7
2023-03-26T12:44:53.521Z, 86.4
2023-03-26T12:47:54.578Z, 84.4
2023-03-26T12:48:04.323Z, 82.6
2023-03-26T12:50:00.032Z, 81.1
2023-03-26T12:52:00.022Z, 80.2
2023-03-26T12:54:00.049Z, 81.3
2023-03-26T12:56:00.100Z, 79.4
2023-03-26T12:58:00.141Z, 76.9
2023-03-26T13:00:00.193Z, 73.3
2023-03-26T13:02:00.212Z, 73.7
2023-03-26T13:04:00.123Z, 75.2
2023-03-26T13:06:00.114Z, 73.1
2023-03-26T13:08:00.114Z, 73.1
2023-03-26T13:10:00.232Z, 73.1
2023-03-26T13:12:00.120Z, 71.8
2023-03-26T13:14:00.104Z, 70.6
2023-03-26T13:16:00.129Z, 74.4
2023-03-26T13:18:00.221Z, 70.1
2023-03-26T13:20:00.201Z, 70.4
2023-03-26T13:22:00.146Z, 69.3
2023-03-26T13:24:00.127Z, 69.9
2023-03-26T13:26:00.081Z, 70.2
2023-03-26T13:28:00.110Z, 71.4
2023-03-26T13:30:00.167Z, 71.8
2023-03-26T13:32:00.050Z, 69.4
2023-03-26T13:34:00.087Z, 70.5
2023-03-26T13:36:14.219Z, 72.5
2023-03-26T13:38:00.061Z, 68.4
2023-03-26T13:40:00.081Z, 70.7
2023-03-26T13:42:00.104Z, 69.1
2023-03-26T13:44:00.043Z, 70.4
2023-03-26T13:46:00.073Z, 72.5
2023-03-26T13:48:00.066Z, 75.1
2023-03-26T13:50:00.080Z, 79.4
2023-03-26T13:52:00.043Z, 81.6
2023-03-26T13:54:00.040Z, 81.8
2023-03-26T13:56:00.136Z, 83.8
2023-03-26T13:58:00.150Z, 80.2
2023-03-26T14:00:00.152Z, 81.7
2023-03-26T14:02:00.243Z, 81.2
2023-03-26T14:04:00.202Z, 81.7
2023-03-26T14:06:00.136Z, 81
2023-03-26T14:08:00.103Z, 79.5
2023-03-26T14:10:00.140Z, 80.1
2023-03-26T14:12:00.112Z, 76.7
2023-03-26T14:14:00.134Z, 77.8
2023-03-26T14:16:00.172Z, 78.3
2023-03-26T14:18:00.236Z, 77.7
2023-03-26T14:20:00.143Z, 78.6
2023-03-26T14:22:00.135Z, 79.7
2023-03-26T14:24:00.141Z, 79.9
2023-03-26T14:26:00.078Z, 79.7
2023-03-26T14:28:00.084Z, 80
2023-03-26T14:30:00.079Z, 80
2023-03-26T14:32:00.050Z, 78.7
2023-03-26T14:34:00.084Z, 76.5
2023-03-26T14:36:00.128Z, 75.7
2023-03-26T14:38:00.049Z, 73.5
2023-03-26T14:40:00.027Z, 75.2
2023-03-26T14:42:00.045Z, 73.9
2023-03-26T14:44:00.042Z, 74.6
2023-03-26T14:46:00.046Z, 74.5
2023-03-26T14:48:00.248Z, 78.1
2023-03-26T14:50:00.028Z, 83.4
2023-03-26T14:52:00.028Z, 88.3
2023-03-26T14:54:00.042Z, 91.7
2023-03-26T14:56:00.107Z, 94.3
2023-03-26T14:58:00.172Z, 94.1
2023-03-26T15:00:00.141Z, 93
2023-03-26T15:02:00.156Z, 91.4
2023-03-26T15:04:00.119Z, 91.9
2023-03-26T15:06:00.111Z, 91.1
2023-03-26T15:08:00.132Z, 90.5
2023-03-26T15:10:00.146Z, 91.4
2023-03-26T15:12:13.213Z, 93.3
2023-03-26T15:14:00.162Z, 94.6
2023-03-26T15:16:00.178Z, 95.4
2023-03-26T15:18:00.198Z, 97
2023-03-26T15:20:00.142Z, 98.4
2023-03-26T15:22:00.113Z, 100
2023-03-26T15:24:00.120Z, 100
2023-03-26T15:26:00.066Z, 100
2023-03-26T15:28:00.066Z, 100
2023-03-26T15:30:00.128Z, 100
2023-03-26T15:32:00.195Z, 100
2023-03-26T15:34:00.055Z, 100
2023-03-26T15:36:00.082Z, 100
2023-03-26T15:38:00.036Z, 100
2023-03-26T15:40:00.509Z, 100
2023-03-26T15:42:00.048Z, 99.8
2023-03-26T15:46:00.064Z, 97.4
2023-03-26T15:48:00.101Z, 96.1
2023-03-26T15:50:00.039Z, 96
2023-03-26T15:52:00.021Z, 95.6
2023-03-26T15:54:00.036Z, 94.8
2023-03-26T15:56:00.116Z, 95.3
2023-03-26T15:58:00.110Z, 95.5
2023-03-26T16:00:00.142Z, 95.7
2023-03-26T16:02:00.125Z, 95.3
2023-03-26T16:04:00.123Z, 94.8
2023-03-26T16:06:00.107Z, 94.8
2023-03-26T16:08:00.140Z, 95.4
2023-03-26T16:10:00.148Z, 96
2023-03-26T16:12:00.135Z, 96.8
2023-03-26T16:14:00.126Z, 97.4
2023-03-26T16:16:00.178Z, 97.8
2023-03-26T16:18:00.189Z, 98.4
2023-03-26T16:20:00.103Z, 98.5
2023-03-26T16:22:00.125Z, 98.4
2023-03-26T16:24:00.135Z, 98.2
2023-03-26T16:26:00.104Z, 98.4
2023-03-26T16:28:00.108Z, 98.7
2023-03-26T16:30:00.111Z, 99.2
2023-03-26T16:32:00.134Z, 100
2023-03-26T16:34:00.108Z, 100
2023-03-26T16:36:00.063Z, 100
2023-03-26T16:38:00.059Z, 100
2023-03-26T16:40:00.041Z, 100
2023-03-26T16:42:06.549Z, 100
2023-03-26T16:44:00.044Z, 100
2023-03-26T16:46:00.069Z, 100
2023-03-26T16:48:00.130Z, 100
2023-03-26T16:50:08.984Z, 100
2023-03-26T16:52:00.035Z, 100
2023-03-26T16:54:00.032Z, 100
2023-03-26T16:56:00.122Z, 100
2023-03-26T16:58:00.126Z, 100
2023-03-26T17:00:06.049Z, 100
2023-03-26T17:02:00.226Z, 100
2023-03-26T17:04:00.151Z, 100
2023-03-26T17:06:00.119Z, 100
2023-03-26T17:08:00.105Z, 100
2023-03-26T17:10:00.158Z, 100
2023-03-26T17:12:00.147Z, 100
2023-03-26T17:14:00.151Z, 100
2023-03-26T17:16:00.115Z, 100
2023-03-26T17:18:00.232Z, 100
2023-03-26T17:20:00.146Z, 100
2023-03-26T17:22:00.131Z, 100
2023-03-26T17:24:00.150Z, 100
2023-03-26T17:26:00.064Z, 100
2023-03-26T17:28:00.048Z, 100
2023-03-26T17:30:00.074Z, 100
2023-03-26T17:32:00.079Z, 100
2023-03-26T17:34:00.145Z, 100
2023-03-26T17:36:00.259Z, 100
2023-03-26T17:38:00.045Z, 100
2023-03-26T17:40:00.048Z, 100
2023-03-26T17:42:00.051Z, 100
2023-03-26T17:44:00.044Z, 100
2023-03-26T17:46:03.301Z, 100
2023-03-26T17:48:00.130Z, 100
2023-03-26T17:50:00.052Z, 100
2023-03-26T17:52:00.044Z, 100
2023-03-26T17:54:00.047Z, 100
2023-03-26T17:56:00.103Z, 100
2023-03-26T17:58:00.150Z, 100
2023-03-26T18:00:00.206Z, 100
2023-03-26T18:02:00.154Z, 100
2023-03-26T18:04:00.159Z, 100
2023-03-26T18:06:00.106Z, 100
2023-03-26T18:08:00.154Z, 100
2023-03-26T18:10:00.118Z, 100
2023-03-26T18:12:00.118Z, 100
2023-03-26T18:14:00.120Z, 100
2023-03-26T18:16:00.182Z, 100
2023-03-26T18:18:00.224Z, 100
2023-03-26T18:20:00.127Z, 100
2023-03-26T18:22:00.126Z, 100
2023-03-26T18:24:00.536Z, 100
2023-03-26T18:26:00.099Z, 100
2023-03-26T18:28:00.050Z, 100
2023-03-26T18:30:02.714Z, 100
2023-03-26T18:32:00.205Z, 100
2023-03-26T18:34:00.089Z, 100
2023-03-26T18:36:00.185Z, 100
2023-03-26T18:38:00.039Z, 100
2023-03-26T18:40:00.053Z, 100
2023-03-26T18:42:00.055Z, 100
2023-03-26T18:44:00.044Z, 100
2023-03-26T18:46:00.050Z, 100
2023-03-26T18:48:00.229Z, 100
2023-03-26T18:50:00.045Z, 100
2023-03-26T18:52:00.042Z, 100
2023-03-26T18:54:00.070Z, 100
2023-03-26T18:56:00.099Z, 100
2023-03-26T18:58:00.108Z, 100
2023-03-26T19:00:00.165Z, 100
2023-03-26T19:02:00.226Z, 100
2023-03-26T19:04:00.108Z, 100
2023-03-26T19:06:00.114Z, 100
2023-03-26T19:08:00.098Z, 100
2023-03-26T19:10:00.162Z, 100
2023-03-26T19:12:00.121Z, 100
2023-03-26T19:14:00.122Z, 100
2023-03-26T19:16:00.121Z, 100
2023-03-26T19:18:00.289Z, 100
2023-03-26T19:20:00.162Z, 100
2023-03-26T19:22:00.111Z, 100
2023-03-26T19:24:00.142Z, 100
2023-03-26T19:26:00.121Z, 100
2023-03-26T19:28:00.121Z, 100
2023-03-26T19:30:00.078Z, 100
2023-03-26T19:32:00.037Z, 100
2023-03-26T19:34:00.062Z, 100
2023-03-26T19:36:00.112Z, 100
2023-03-26T19:38:00.033Z, 100
2023-03-26T19:40:00.030Z, 100
2023-03-26T19:42:00.089Z, 100
2023-03-26T19:44:00.096Z, 100
2023-03-26T19:46:01.238Z, 100
2023-03-26T19:48:12.201Z, 100
2023-03-26T19:50:00.079Z, 100
2023-03-26T19:52:00.062Z, 100
2023-03-26T19:54:00.108Z, 100
2023-03-26T19:56:00.113Z, 100
2023-03-26T19:58:00.111Z, 100
2023-03-26T20:00:00.244Z, 100
2023-03-26T20:02:00.184Z, 100
2023-03-26T20:04:00.252Z, 100
2023-03-26T20:06:00.134Z, 100
2023-03-26T20:08:00.120Z, 100
2023-03-26T20:10:01.136Z, 100
2023-03-26T20:12:00.116Z, 100
2023-03-26T20:14:00.113Z, 100
2023-03-26T20:16:05.525Z, 100
2023-03-26T20:18:00.161Z, 100
2023-03-26T20:20:00.109Z, 100
2023-03-26T20:22:00.110Z, 99.3
2023-03-26T20:24:00.143Z, 97.9
2023-03-26T20:26:00.096Z, 96.6
2023-03-26T20:28:00.088Z, 95
2023-03-26T20:30:00.111Z, 94.5
2023-03-26T20:32:00.037Z, 94.8
2023-03-26T20:34:00.119Z, 94.1
2023-03-26T20:36:00.537Z, 94.1
2023-03-26T20:38:00.042Z, 93.2
2023-03-26T20:40:00.049Z, 92.9
2023-03-26T20:42:00.055Z, 93.3
2023-03-26T20:44:00.051Z, 93.3
2023-03-26T20:46:00.074Z, 92.6
2023-03-26T20:48:00.081Z, 91.8
2023-03-26T20:50:00.060Z, 91.7
2023-03-26T20:52:00.073Z, 91.9
2023-03-26T20:54:00.084Z, 92.1
2023-03-26T20:56:00.103Z, 92.8
2023-03-26T20:58:00.092Z, 93.4
2023-03-26T21:00:00.144Z, 93.5
2023-03-26T21:02:00.130Z, 93.4
2023-03-26T21:04:00.099Z, 94.1
2023-03-26T21:06:00.162Z, 94.9
2023-03-26T21:08:00.104Z, 95.4
2023-03-26T21:10:00.099Z, 95.9
2023-03-26T21:12:00.143Z, 96.1
2023-03-26T21:14:00.132Z, 96.1
2023-03-26T21:16:00.997Z, 96.4
2023-03-26T21:18:00.118Z, 96.2
2023-03-26T21:20:00.171Z, 96.1
2023-03-26T21:22:00.132Z, 95.4
2023-03-26T21:24:00.133Z, 94.8
2023-03-26T21:26:00.085Z, 94.2
2023-03-26T21:28:00.078Z, 93.7
2023-03-26T21:30:00.123Z, 93
2023-03-26T21:32:00.132Z, 92.5
2023-03-26T21:34:00.100Z, 91.9
2023-03-26T21:36:00.194Z, 91.7
2023-03-26T21:38:00.047Z, 93.1
2023-03-26T21:40:00.075Z, 93.5
2023-03-26T21:42:05.003Z, 93.7
2023-03-26T21:44:00.050Z, 93.4
2023-03-26T21:46:00.072Z, 92.4
2023-03-26T21:48:00.132Z, 91.4
2023-03-26T21:50:00.048Z, 90.2
2023-03-26T21:52:00.042Z, 89.6
2023-03-26T21:54:00.036Z, 88.6
2023-03-26T21:56:00.094Z, 88.5
2023-03-26T21:58:00.111Z, 88
2023-03-26T22:00:00.177Z, 87.5
2023-03-26T22:02:00.159Z, 87.5
2023-03-26T22:04:00.233Z, 87.3
2023-03-26T22:06:00.142Z, 87.6
2023-03-26T22:08:00.103Z, 87.3
2023-03-26T22:10:00.140Z, 87.4
2023-03-26T22:12:00.116Z, 87.1
2023-03-26T22:14:00.120Z, 86.7
2023-03-26T22:16:00.167Z, 85.7
2023-03-26T22:18:00.157Z, 85.7
2023-03-26T22:20:00.120Z, 85.8
2023-03-26T22:22:00.292Z, 84.8
2023-03-26T22:24:00.127Z, 84.6
2023-03-26T22:26:00.108Z, 83.4
2023-03-26T22:28:00.092Z, 82.9
2023-03-26T22:30:00.055Z, 83
2023-03-26T22:32:00.093Z, 82.2
2023-03-26T22:34:00.150Z, 81.2
2023-03-26T22:36:00.098Z, 81.1
2023-03-26T22:38:00.871Z, 80.5
2023-03-26T22:40:00.056Z, 80.8
2023-03-26T22:42:00.052Z, 80.8
2023-03-26T22:44:09.343Z, 81.4
2023-03-26T22:46:00.136Z, 81
2023-03-26T22:48:03.989Z, 80.9
2023-03-26T22:50:00.057Z, 80.9
2023-03-26T22:52:00.040Z, 81.7
2023-03-26T22:54:00.048Z, 82.2
2023-03-26T22:56:00.098Z, 81.6
2023-03-26T22:58:00.137Z, 81.8
2023-03-26T23:00:00.146Z, 82.4
2023-03-26T23:02:00.190Z, 82.3
2023-03-26T23:04:00.167Z, 82.6
2023-03-26T23:06:00.122Z, 82.6
2023-03-26T23:08:00.112Z, 82.9
2023-03-26T23:10:00.158Z, 82.7
2023-03-26T23:12:00.142Z, 82.3
2023-03-26T23:14:00.109Z, 81.8
2023-03-26T23:16:00.188Z, 81.5
2023-03-26T23:18:00.326Z, 80.8
2023-03-26T23:20:00.149Z, 80.7
2023-03-26T23:22:00.121Z, 78.9
2023-03-26T23:24:00.117Z, 78.5
2023-03-26T23:26:00.085Z, 78.9
2023-03-26T23:28:00.088Z, 76.8
2023-03-26T23:30:00.085Z, 77
2023-03-26T23:32:00.086Z, 76.9
2023-03-26T23:34:00.097Z, 74.5
2023-03-26T23:36:00.200Z, 73.6
2023-03-26T23:38:00.046Z, 72.8
2023-03-26T23:40:00.042Z, 72.7
2023-03-26T23:42:00.055Z, 72.6
2023-03-26T23:44:00.053Z, 71.2
2023-03-26T23:46:00.162Z, 70.9
2023-03-26T23:48:00.096Z, 71.2
2023-03-26T23:50:00.046Z, 71.7
2023-03-26T23:52:00.036Z, 71.7
2023-03-26T23:54:00.038Z, 71.7
2023-03-26T23:56:00.118Z, 71.9
2023-03-26T23:58:00.115Z, 72.1
